Latest Weather Observations for Coonawarra

IDS60801

Issued at 12:01 pm CDT Monday 18 October 2021 (issued every 10 minutes, with the page automatically refreshed every 10 minutes)

About weather observations | Map of weather stations | Latest weather observations for SA | Other Formats
Station Details ID: 026091 Name: COONAWARRA Lat: -37.29 Lon: 140.83 Height: 57.0 m
Data from the previous 72 hours. | See also: Recent months at Coonawarra
Date/Time
CDT
Temp
°C
App
Temp
°C
Dew
Point
°C
Rel
Hum
%
Delta-T
°C
Wind Press
QNH
hPa
Press
MSL
hPa
Rain since
9am
mm
Dir  Spd
km/h
Gust
km/h
Spd
kts
Gust
kts
18/12:00pm 16.1 11.7 7.2 55 4.4 SW 20 30 11 16 1015.9 1015.9 0.0
18/11:30am 15.3 10.9 7.4 59 3.9 SW 20 32 11 17 1015.8 1015.8 0.0
18/11:00am 15.7 11.9 8.9 64 3.5 SW 19 30 10 16 1015.9 1015.9 0.0
18/10:30am 14.3 10.4 8.5 68 2.9 SW 19 26 10 14 1015.7 1015.7 0.0
18/10:00am 14.3 10.5 9.2 71 2.6 SW 19 28 10 15 1015.3 1015.3 0.0
18/09:30am 13.5 10.5 9.4 76 2.1 SW 15 20 8 11 1014.9 1014.9 0.0
18/09:00am 12.4 10.4 10.1 86 1.2 WSW 11 13 6 7 1015.0 1015.0 0.0
18/08:30am 11.1 9.8 10.1 94 0.5 WSW 7 9 4 5 1014.7 1014.7 0.0
18/08:00am 9.1 8.9 9.1 100 0.0 CALM 0 0 0 0 1014.3 1014.3 0.0
18/07:30am 7.7 7.2 7.7 100 0.0 CALM 0 0 0 0 1014.3 1014.3 0.0
18/07:00am 7.3 5.5 7.3 100 0.0 NE 6 7 3 4 1013.8 1013.8 0.0
18/06:30am 6.9 5.0 6.9 100 0.0 NE 6 7 3 4 1013.5 1013.5 0.0
18/06:00am 7.6 7.0 7.6 100 0.0 CALM 0 0 0 0 1013.2 1013.2 0.0
18/05:30am 7.7 6.0 7.7 100 0.0 E 6 9 3 5 1012.5 1012.5 0.0
18/05:00am 7.6 5.9 7.6 100 0.0 E 6 7 3 4 1012.7 1012.7 0.0
18/04:30am 7.4 6.8 7.2 99 0.1 CALM 0 0 0 0 1012.9 1012.9 0.0
18/04:00am 7.1 5.3 7.1 100 0.0 E 6 7 3 4 1012.8 1012.8 0.0
18/03:30am 7.2 5.4 7.0 99 0.1 E 6 7 3 4 1012.7 1012.7 0.0
18/03:00am 7.2 5.7 6.8 97 0.2 E 4 6 2 3 1012.8 1012.8 0.0
18/02:30am 6.5 5.2 6.1 97 0.2 SW 2 6 1 3 1012.9 1012.9 0.0
18/02:00am 6.2 3.9 5.5 95 0.3 WSW 7 9 4 5 1012.9 1012.9 0.0
18/01:30am 5.9 4.9 5.4 97 0.2 CALM 0 6 0 3 1012.9 1012.9 0.0
18/01:00am 6.4 4.2 6.0 97 0.2 NE 7 9 4 5 1012.8 1012.8 0.0
18/12:30am 6.6 4.3 5.5 93 0.5 E 7 7 4 4 1013.0 1013.0 0.0
18/12:00am 7.0 6.1 6.1 94 0.4 CALM 0 0 0 0 1013.2 1013.2 0.0
 
Date/Time
CDT
Temp
°C
App
Temp
°C
Dew
Point
°C
Rel
Hum
%
Delta-T
°C
Wind Press
QNH
hPa
Press
MSL
hPa
Rain since
9am
mm
Dir  Spd
km/h
Gust
km/h
Spd
kts
Gust
kts
17/11:30pm 7.9 5.8 6.6 91 0.6 SSW 7 7 4 4 1013.5 1013.5 0.0
17/11:00pm 8.5 6.5 7.0 90 0.7 S 7 7 4 4 1013.3 1013.3 0.0
17/10:30pm 9.2 6.9 7.3 88 0.9 S 9 11 5 6 1013.5 1013.5 0.0
17/10:00pm 9.4 7.1 7.3 87 1.0 SSW 9 9 5 5 1013.5 1013.5 0.0
17/09:30pm 9.8 7.1 7.5 85 1.1 SSW 11 13 6 7 1013.3 1013.3 0.0
17/09:00pm 10.5 8.3 8.0 84 1.2 S 9 11 5 6 1013.0 1013.0 0.0
17/08:30pm 11.1 10.5 7.6 79 1.7 CALM 0 0 0 0 1012.7 1012.7 0.0
17/08:00pm 12.2 11.7 7.9 75 2.1 CALM 0 6 0 3 1012.6 1012.6 0.0
17/07:30pm 13.2 12.8 8.2 71 2.5 CALM 0 0 0 0 1012.4 1012.4 0.0
17/07:00pm 14.8 14.2 7.3 61 3.7 CALM 0 0 0 0 1012.5 1012.5 0.0
17/06:30pm 15.1 14.6 7.7 61 3.7 CALM 0 0 0 0 1012.4 1012.4 0.0
17/06:00pm 15.8 13.8 6.4 53 4.6 WSW 6 11 3 6 1012.4 1012.4 0.0
17/05:30pm 16.2 13.3 6.4 52 4.8 WNW 11 19 6 10 1012.5 1012.5 0.0
17/05:00pm 16.2 12.8 6.1 51 4.9 W 13 20 7 11 1012.7 1012.7 0.0
17/04:30pm 16.4 12.7 6.4 51 4.9 W 15 24 8 13 1012.7 1012.7 0.0
17/04:00pm 15.4 12.0 5.8 52 4.6 NW 13 20 7 11 1012.8 1012.8 0.0
17/03:30pm 15.0 12.2 5.3 52 4.6 NW 9 17 5 9 1012.8 1012.8 0.0
17/03:00pm 14.8 11.4 6.1 56 4.2 NNW 13 20 7 11 1013.2 1013.2 0.0
17/02:30pm 15.0 11.6 6.1 55 4.3 NW 13 24 7 13 1013.5 1013.5 0.0
17/02:00pm 14.7 11.7 5.9 55 4.2 WNW 11 19 6 10 1013.8 1013.8 0.0
17/01:30pm 14.5 11.1 5.9 56 4.1 NNW 13 22 7 12 1014.1 1014.1 0.0
17/01:00pm 13.9 9.8 6.4 60 3.6 N 17 24 9 13 1014.3 1014.3 0.0
17/12:30pm 13.6 9.7 7.0 64 3.2 NNW 17 20 9 11 1014.6 1014.6 0.0
17/12:00pm 13.1 9.1 6.7 65 3.1 NW 17 28 9 15 1014.8 1014.8 0.0
17/11:30am 13.0 9.5 7.2 68 2.8 NW 15 20 8 11 1015.1 1015.1 0.0
17/11:00am 12.5 9.1 7.6 72 2.4 NNW 15 20 8 11 1015.5 1015.5 0.0
17/10:30am 12.4 9.0 7.7 73 2.3 NNW 15 20 8 11 1015.5 1015.5 0.0
17/10:00am 12.4 9.6 8.4 76 2.0 NNW 13 19 7 10 1015.4 1015.4 0.0
17/09:30am 11.8 8.8 7.5 75 2.1 N 13 17 7 9 1015.3 1015.3 0.0
17/09:00am 11.6 9.5 9.8 89 0.9 NNW 11 13 6 7 1015.4 1015.4 0.0
17/08:30am 11.2 9.5 9.8 91 0.7 NNW 9 13 5 7 1015.3 1015.3 0.0
17/08:00am 10.4 9.2 10.2 99 0.1 NW 7 9 4 5 1015.1 1015.1 0.0
17/07:30am 9.4 8.2 9.4 100 0.0 NW 6 7 3 4 1015.0 1015.0 0.0
17/07:00am 8.6 8.3 8.6 100 0.0 CALM 0 0 0 0 1014.8 1014.8 0.0
17/06:30am 8.2 6.6 8.2 100 0.0 NW 6 6 3 3 1014.7 1014.7 0.0
17/06:00am 8.7 7.3 8.7 100 0.0 NW 6 6 3 3 1014.4 1014.4 0.0
17/05:30am 9.1 7.6 9.1 100 0.0 NW 7 9 4 5 1014.3 1014.3 0.0
17/05:00am 9.2 7.9 9.2 100 0.0 NNW 6 9 3 5 1014.0 1014.0 0.0
17/04:30am 9.1 8.2 9.1 100 0.0 NNW 4 7 2 4 1014.1 1014.1 0.0
17/04:00am 9.2 9.0 9.2 100 0.0 CALM 0 0 0 0 1014.3 1014.3 0.0
17/03:30am 9.4 8.2 9.4 100 0.0 W 6 7 3 4 1014.5 1014.5 0.0
17/03:00am 9.5 8.3 9.5 100 0.0 W 6 7 3 4 1014.5 1014.5 0.0
17/02:30am 9.7 8.5 9.7 100 0.0 NW 6 7 3 4 1014.6 1014.6 0.0
17/02:00am 9.8 8.7 9.8 100 0.0 N 6 7 3 4 1014.8 1014.8 0.0
17/01:30am 9.9 9.9 9.9 100 0.0 CALM 0 0 0 0 1014.9 1014.9 0.0
17/01:00am 10.0 9.3 10.0 100 0.0 WNW 4 6 2 3 1015.2 1015.2 0.0
17/12:30am 10.1 9.8 10.1 100 0.0 WNW 2 6 1 3 1015.3 1015.3 0.0
17/12:00am 10.1 9.0 9.9 99 0.1 WSW 6 7 3 4 1015.5 1015.5 0.0
 
Date/Time
CDT
Temp
°C
App
Temp
°C
Dew
Point
°C
Rel
Hum
%
Delta-T
°C
Wind Press
QNH
hPa
Press
MSL
hPa
Rain since
9am
mm
Dir  Spd
km/h
Gust
km/h
Spd
kts
Gust
kts
16/11:30pm 10.2 8.9 9.8 97 0.2 WSW 7 11 4 6 1015.6 1015.6 0.0
16/11:00pm 10.3 10.0 10.1 99 0.1 SW 2 7 1 4 1015.6 1015.6 0.0
16/10:30pm 10.3 9.2 9.9 97 0.2 SW 6 9 3 5 1015.6 1015.6 0.0
16/10:00pm 10.5 9.1 9.7 95 0.4 SW 7 9 4 5 1015.7 1015.7 0.0
16/09:30pm 10.6 9.3 9.8 95 0.4 WSW 7 11 4 6 1015.4 1015.4 0.0
16/09:00pm 10.9 9.2 9.9 93 0.5 SW 9 11 5 6 1015.3 1015.3 0.0
16/08:30pm 11.2 9.5 9.8 91 0.7 SW 9 13 5 7 1015.2 1015.2 0.0
16/08:00pm 11.4 9.6 9.4 87 1.0 SSW 9 13 5 7 1015.0 1015.0 0.0
16/07:30pm 11.7 9.5 9.3 85 1.2 SSW 11 15 6 8 1014.8 1014.8 0.0
16/07:00pm 12.1 9.0 8.7 80 1.7 SW 15 20 8 11 1014.6 1014.6 0.0
16/06:30pm 12.8 9.6 8.6 75 2.1 SSW 15 19 8 10 1014.4 1014.4 0.0
16/06:00pm 13.2 10.0 8.4 72 2.4 SW 15 20 8 11 1014.3 1014.3 0.0
16/05:30pm 13.1 9.1 8.9 75 2.1 SW 20 28 11 15 1014.1 1014.1 0.0
16/05:00pm 13.9 9.7 8.3 69 2.8 WSW 20 24 11 13 1014.0 1014.0 0.0
16/04:30pm 14.1 10.1 8.1 67 3.0 SW 19 24 10 13 1013.9 1013.9 0.0
16/04:00pm 14.2 10.8 9.3 72 2.5 SW 17 26 9 14 1013.9 1013.9 0.0
16/03:30pm 13.1 9.3 9.2 77 2.0 SSW 19 24 10 13 1014.0 1014.0 0.0
16/03:00pm 13.8 10.9 9.7 76 2.1 SSW 15 19 8 10 1014.1 1014.1 0.0
16/02:30pm 13.8 10.3 8.6 71 2.6 SW 17 22 9 12 1014.4 1014.4 0.0
16/02:00pm 13.2 9.8 9.3 77 2.0 SW 17 26 9 14 1014.6 1014.6 0.0
16/01:30pm 13.4 10.6 8.4 72 2.5 SW 13 20 7 11 1014.6 1014.6 0.0
16/01:00pm 13.7 9.9 9.2 74 2.3 SW 19 26 10 14 1014.7 1014.7 0.0
16/12:30pm 12.8 8.8 9.2 79 1.8 SSW 20 28 11 15 1014.9 1014.9 0.0
16/12:00pm 13.1 9.1 9.2 77 2.0 SW 20 26 11 14 1015.1 1015.1 0.0
16/11:30am 13.6 10.3 9.7 77 2.0 S 17 24 9 13 1015.2 1015.2 0.0
16/11:00am 12.6 9.0 9.7 82 1.5 SSW 19 24 10 13 1015.4 1015.4 0.0
16/10:30am 12.4 8.4 9.2 81 1.6 S 20 28 11 15 1015.4 1015.4 0.0
16/10:00am 11.2 7.7 10.2 94 0.5 S 19 26 10 14 1015.4 1015.4 0.0
16/09:30am 11.4 7.2 9.6 89 0.9 SSW 22 26 12 14 1015.2 1015.2 0.0
16/09:00am 11.6 8.0 9.8 89 0.9 SSW 19 28 10 15 1015.1 1015.1 1.4
16/08:30am 11.0 7.9 10.4 96 0.3 SSW 17 22 9 12 1014.9 1014.9 1.4
16/08:00am 10.2 7.8 10.2 100 0.0 SW 13 19 7 10 1014.5 1014.5 1.4
16/07:30am 9.7 7.2 9.7 100 0.0 WSW 13 17 7 9 1014.2 1014.2 1.4
16/07:00am 9.4 7.2 9.4 100 0.0 SW 11 15 6 8 1013.6 1013.6 1.4
16/06:30am 9.2 7.3 9.2 100 0.0 SW 9 15 5 8 1013.3 1013.3 1.4
16/06:00am 9.0 6.7 9.0 100 0.0 SW 11 17 6 9 1012.8 1012.8 1.4
16/05:30am 9.0 6.3 9.0 100 0.0 SW 13 19 7 10 1012.5 1012.5 1.4
16/05:00am 9.3 5.6 9.3 100 0.0 SW 19 28 10 15 1012.3 1012.3 1.4
16/04:30am 9.3 5.6 9.3 100 0.0 SW 19 24 10 13 1012.1 1012.1 1.4
16/04:00am 9.3 5.4 9.3 100 0.0 SW 20 28 11 15 1012.0 1012.0 1.4
16/03:30am 9.4 6.1 9.4 100 0.0 SW 17 20 9 11 1012.0 1012.0 1.4
16/03:00am 9.5 - - - - SW 15 22 8 12 1012.2 1012.2 1.4
16/02:30am 9.5 6.6 9.5 100 0.0 SW 15 22 8 12 1012.0 1012.0 1.2
16/02:00am 9.5 5.8 9.5 100 0.0 SW 19 26 10 14 1012.0 1012.0 1.2
16/01:30am 9.5 6.2 9.5 100 0.0 SSW 17 24 9 13 1012.1 1012.1 1.2
16/01:00am 9.8 6.9 9.8 100 0.0 SW 15 22 8 12 1012.1 1012.1 1.2
16/12:30am 10.0 7.5 9.8 99 0.1 SW 13 17 7 9 1012.1 1012.1 1.0
16/12:00am 10.1 6.4 9.5 96 0.3 SW 19 28 10 15 1012.0 1012.0 1.0
 
Date/Time
CDT
Temp
°C
App
Temp
°C
Dew
Point
°C
Rel
Hum
%
Delta-T
°C
Wind Press
QNH
hPa
Press
MSL
hPa
Rain since
9am
mm
Dir  Spd
km/h
Gust
km/h
Spd
kts
Gust
kts
15/11:30pm 9.9 7.5 9.9 100 0.0 SW 13 17 7 9 1012.0 1012.0 1.0
15/11:00pm 10.1 6.8 9.5 96 0.3 SW 17 20 9 11 1012.1 1012.1 1.0
15/10:30pm 10.5 6.0 8.5 87 1.0 SW 22 33 12 18 1011.9 1011.9 1.0
15/10:00pm 10.9 6.2 7.8 81 1.5 SW 22 30 12 16 1011.7 1011.7 1.0
15/09:30pm 11.1 6.5 8.2 82 1.4 SW 22 37 12 20 1011.6 1011.6 1.0
15/09:00pm 11.1 7.0 8.7 85 1.2 SW 20 30 11 16 1011.5 1011.5 1.0
15/08:30pm 11.0 6.3 9.4 90 0.8 SW 24 35 13 19 1011.1 1011.1 1.0
15/08:00pm 10.9 6.6 9.3 90 0.8 SW 22 32 12 17 1010.7 1010.7 1.0
15/07:30pm 11.1 7.1 9.1 87 1.0 SW 20 30 11 16 1010.5 1010.5 1.0
15/07:00pm 11.1 4.6 8.0 81 1.5 SW 32 50 17 27 1009.9 1009.9 1.0
15/06:55pm 11.3 5.6 8.5 83 1.4 SW 28 50 15 27 1009.9 1009.9 1.0
15/06:30pm 12.0 6.9 7.7 75 2.1 SW 24 35 13 19 1009.5 1009.5 1.0
15/06:00pm 12.3 7.0 8.3 76 2.0 SW 26 35 14 19 1009.3 1009.3 1.0
15/05:47pm 12.7 6.9 7.8 72 2.4 SW 28 46 15 25 1009.0 1009.0 1.0
15/05:30pm 13.2 8.5 9.3 77 2.0 SW 24 37 13 20 1008.7 1008.7 1.0
15/05:00pm 12.1 7.5 9.5 84 1.3 SW 24 39 13 21 1008.6 1008.6 1.0
15/04:30pm 12.5 7.6 8.5 76 2.0 SW 24 33 13 18 1008.3 1008.2 1.0
15/04:00pm 12.3 6.8 9.1 81 1.6 SSW 28 39 15 21 1008.2 1008.1 1.0
15/03:44pm 12.3 5.9 8.7 79 1.8 SW 32 50 17 27 1008.2 1008.1 1.0
15/03:30pm 13.4 7.9 9.1 75 2.2 SW 28 41 15 22 1008.1 1008.0 1.0
15/03:00pm 13.4 8.7 9.1 75 2.2 SSW 24 35 13 19 1008.0 1007.9 1.0
15/02:30pm 13.5 8.7 8.8 73 2.4 SSW 24 33 13 18 1008.1 1008.0 1.0
15/02:13pm 13.8 8.2 8.9 72 2.5 SSW 28 46 15 25 1008.1 1008.0 1.0
15/02:00pm 14.4 8.0 8.7 68 2.9 SSW 32 44 17 24 1008.0 1007.9 1.0
15/01:30pm 14.9 9.8 10.6 75 2.3 SW 28 41 15 22 1007.9 1007.8 1.0
15/01:00pm 13.7 8.9 11.7 88 1.1 SSW 28 39 15 21 1007.9 1007.8 1.0
15/12:30pm 13.2 8.9 11.9 92 0.7 SSW 26 35 14 19 1008.0 1007.9 1.0

Other formats

Comma delimited format used in spreadsheet applications
http://www.bom.gov.au/fwo/IDS60801/IDS60801.94817.axf

JavaScript Object Notation format (JSON) in row-major order
http://www.bom.gov.au/fwo/IDS60801/IDS60801.94817.json

Data quality

Most of these data are generated automatically and are frequently updated. Quality checks on data are not normally performed. It is possible for incorrect values to appear. Refer to information at About Latest Weather Observations and please check the disclaimer before using these data.